createdAt,value
2022-12-06T04:11:16.892Z,12.288126929206282
2022-12-06T04:14:16.368Z,12.241881968006874
2022-12-06T04:18:21.988Z,12.191140996036484
2022-12-06T04:43:42.095Z,12.007446069043363
2022-12-06T04:44:16.308Z,11.981112211391974
2022-12-06T04:47:16.771Z,11.9406480059959
2022-12-06T04:51:16.528Z,11.89504551043583
2022-12-06T04:54:16.298Z,11.820540074053952
2022-12-06T04:57:16.851Z,11.79356398286627
2022-12-06T05:01:16.394Z,11.769799337751829
2022-12-06T05:04:16.647Z,11.769799337751829
2022-12-06T05:07:16.588Z,11.703001449691147
2022-12-06T05:11:16.592Z,11.660610507779348
2022-12-06T05:14:16.991Z,11.63813047086378
2022-12-06T05:17:16.844Z,11.580966973514297
2022-12-06T05:21:20.448Z,11.56234067316991
2022-12-06T05:24:17.269Z,11.483981796366516
2022-12-06T05:27:17.044Z,11.501323509171197
2022-12-06T05:31:16.697Z,11.437094959826208
2022-12-06T05:34:16.511Z,11.343321359446055
2022-12-06T05:37:16.456Z,11.311849419400186
2022-12-06T05:41:17.540Z,11.207157125982121
2022-12-06T05:44:17.067Z,11.242482732954613
2022-12-06T05:47:16.671Z,11.233490758965582
2022-12-06T05:51:17.014Z,11.174400666353995
2022-12-06T05:54:17.393Z,11.059432009504235
2022-12-06T05:57:17.113Z,11.04722864107398
2022-12-06T06:01:16.129Z,11.040805816243756
2022-12-06T06:04:16.592Z,11.044659511087321
2022-12-06T06:07:16.461Z,11.013187674655637
2022-12-06T06:11:16.276Z,10.912349415136214
2022-12-06T06:14:16.868Z,10.897576940670842
2022-12-06T06:17:17.180Z,10.828852851959619
2022-12-06T06:21:16.807Z,10.788389160528094
2022-12-06T06:24:16.992Z,10.695900790745872
2022-12-06T06:27:17.096Z,10.689477990790328
2022-12-06T06:31:16.534Z,10.602770235898879
2022-12-06T06:34:16.594Z,10.549461064773277
2022-12-06T06:37:16.254Z,10.515420285142408
2022-12-06T06:41:16.209Z,10.459542051933022
2022-12-06T06:44:16.737Z,10.394671962300436
2022-12-06T06:47:16.468Z,10.349070243889946
2022-12-06T06:51:16.241Z,10.35163935417695
2022-12-06T06:54:16.713Z,10.284200233256069
2022-12-06T06:57:18.059Z,10.254655491312679
2022-12-06T07:01:18.032Z,10.235387186533718
2022-12-06T07:04:17.160Z,10.149322141821994
2022-12-06T07:07:20.999Z,10.117850616010037
2022-12-06T07:11:16.209Z,10.101793719291981
2022-12-06T07:14:16.387Z,10.122988823560082
2022-12-06T07:17:16.498Z,10.09215958262539
2022-12-06T07:21:17.110Z,10.099224616080846
2022-12-06T07:24:17.033Z,10.091517306883997
2022-12-06T07:27:17.127Z,10.116566064168001
2022-12-06T07:31:19.921Z,10.18400506046537
2022-12-06T07:34:17.148Z,10.228964419183558
2022-12-06T07:37:19.273Z,10.27841973950999
2022-12-06T07:51:15.812Z,10.56294892438682
2022-12-06T07:54:16.927Z,10.611119867948947
2022-12-06T07:57:16.340Z,10.702323591156164
2022-12-06T08:01:18.036Z,10.806373021158288
2022-12-06T08:04:19.004Z,10.864178311616707
2022-12-06T08:07:17.845Z,10.920056794073115
2022-12-06T08:11:16.858Z,11.03117157985107
2022-12-06T08:14:17.180Z,11.110172348475407
2022-12-06T08:17:17.126Z,11.202661140626969
2022-12-06T08:21:16.773Z,11.323410538964618
2022-12-06T08:24:16.328Z,11.40883441252081
2022-12-06T08:27:16.272Z,11.519307511136867
2022-12-06T08:31:20.324Z,11.633634464149145
2022-12-06T08:34:17.468Z,11.695294004233801
2022-12-06T08:37:17.160Z,11.774295351214914
2022-12-06T08:42:25.175Z,11.886695760210568
2022-12-06T08:44:18.275Z,11.988819681132828
2022-12-06T08:47:16.641Z,12.072959601731053
2022-12-06T08:51:16.670Z,12.168660827653458
2022-12-06T08:54:18.889Z,12.229678440510543
2022-12-06T08:57:17.273Z,12.32987587275893
2022-12-06T09:01:18.558Z,12.397316514468638
2022-12-06T09:04:17.038Z,12.4686109616483
2022-12-06T09:07:16.700Z,12.565597191458892
2022-12-06T09:11:17.974Z,12.68891758042746
2022-12-06T09:14:21.826Z,12.75443160525183
2022-12-06T09:17:17.582Z,12.855271912389435
2022-12-06T09:21:19.906Z,12.96895825294423
2022-12-06T09:24:18.147Z,13.062091236960622
2022-12-06T09:27:18.915Z,13.196973659181094
2022-12-06T09:31:17.460Z,13.331856281945146
2022-12-06T09:34:17.242Z,13.421778141867616
2022-12-06T09:37:16.801Z,13.507846291275929
2022-12-06T09:41:31.904Z,13.618321946008654
2022-12-06T09:44:34.771Z,13.696682666385096
2022-12-06T09:47:28.422Z,13.79752402089225
2022-12-06T09:51:27.804Z,13.902219303723905
2022-12-06T09:54:33.694Z,14.006914707377382
2022-12-06T09:57:23.131Z,14.093625715986127
2022-12-06T10:01:28.275Z,14.20024825499604
2022-12-06T10:04:37.754Z,14.303659391452038
2022-12-06T10:07:27.810Z,14.371101500472287
2022-12-06T10:11:30.073Z,14.477724365590621
2022-12-06T10:14:30.826Z,14.653716597799212
2022-12-06T10:17:27.874Z,14.796951403750517
2022-12-06T10:21:25.175Z,14.980009668799175
2022-12-06T10:24:31.456Z,15.150864382763757
2022-12-06T10:27:23.157Z,15.329427172047144
2022-12-06T10:31:22.280Z,15.525332794810037
2022-12-06T10:34:21.087Z,15.633883961366156
2022-12-06T10:37:31.322Z,15.818228547701528
2022-12-06T10:41:22.724Z,15.90237201997661
2022-12-06T10:44:24.509Z,16.016062178990342
2022-12-06T10:47:22.509Z,16.209400008182637
2022-12-06T10:51:21.128Z,16.47146656063014
2022-12-06T10:54:25.839Z,16.605711729966515
2022-12-06T10:57:23.136Z,16.750234263483435
2022-12-06T11:01:21.016Z,16.937792739122234
2022-12-06T11:04:24.131Z,17.03671072148463
2022-12-06T11:07:21.806Z,17.09066603004794
2022-12-06T11:11:19.089Z,17.275013576406582
2022-12-06T11:14:23.204Z,17.438164679006967
2022-12-06T11:17:20.993Z,17.67389927064978
2022-12-06T11:21:23.637Z,17.94624735435973
2022-12-06T11:24:22.960Z,18.014976834860228
2022-12-06T11:27:21.792Z,18.167209607884068
2022-12-06T11:31:25.957Z,18.22951592198451
2022-12-06T11:34:27.045Z,18.218596255596275
2022-12-06T11:37:18.944Z,18.295033947912543
2022-12-06T11:41:21.260Z,18.24942825819344
2022-12-06T11:44:22.351Z,18.258420927591214
2022-12-06T11:47:20.956Z,18.281544938706794
2022-12-06T11:51:20.163Z,18.415792786332258
2022-12-06T11:54:25.345Z,18.413223447671136
2022-12-06T11:57:22.635Z,18.384960727200905
2022-12-06T12:01:16.076Z,18.373398707727848
2022-12-06T12:04:33.747Z,18.39331107551443
2022-12-06T12:07:22.202Z,18.310449960889038
2022-12-06T12:11:20.271Z,18.24942825819344
2022-12-06T12:14:23.702Z,18.176844602113214
2022-12-06T12:17:20.697Z,18.176202269132773
2022-12-06T12:21:27.474Z,18.140873962211572
2022-12-06T12:25:19.222Z,18.25199759221614
2022-12-06T12:27:33.659Z,18.28732594240655
2022-12-06T12:31:18.032Z,18.39266874100149
2022-12-06T12:34:19.772Z,18.454975209929763
2022-12-06T12:37:20.731Z,18.495442320915846
2022-12-06T12:41:28.519Z,18.52948609493069
2022-12-06T12:44:37.716Z,18.56481455316907
2022-12-06T12:47:18.493Z,18.64189487343765
2022-12-06T12:51:25.786Z,18.681077394678503
2022-12-06T12:54:24.090Z,18.77228923097864
2022-12-06T12:57:16.450Z,18.801194409503022
2022-12-06T13:01:27.535Z,18.827530246842436
2022-12-06T13:04:37.430Z,18.81147180853086
2022-12-06T13:07:21.079Z,18.869924537641054
2022-12-06T13:11:15.980Z,18.907822481032873
2022-12-06T13:14:19.490Z,18.814041158469717
2022-12-06T13:17:18.024Z,18.80633310887142
2022-12-06T13:21:21.466Z,18.833311285330364
2022-12-06T13:24:23.001Z,18.900114423467404
2022-12-06T13:27:20.017Z,18.99068414121866
2022-12-06T13:31:20.132Z,19.094743077477688
2022-12-06T13:34:23.817Z,19.076757573790747
2022-12-06T13:37:36.467Z,19.035005525405087
2022-12-06T13:42:39.043Z,18.959209548204036
2022-12-06T13:44:39.130Z,18.917457553910573
2022-12-06T13:47:50.158Z,18.851939078519354
2022-12-06T13:51:43.164Z,18.90525312843829
2022-12-06T13:54:32.522Z,18.821106871176745
2022-12-06T13:57:23.990Z,18.835238298241528
2022-12-06T14:11:20.097Z,18.750449768867476
2022-12-06T14:14:18.268Z,18.740172376751797
2022-12-06T14:17:38.191Z,18.73374900727067
2022-12-06T14:21:22.101Z,18.722186943350607
2022-12-06T14:24:34.363Z,18.671442346902857
2022-12-06T14:27:19.191Z,18.65152991807554
2022-12-06T14:31:22.171Z,18.624551795667866
2022-12-06T14:34:24.708Z,18.600785361145334
2022-12-06T14:37:20.940Z,18.61298974566307
2022-12-06T14:51:23.263Z,18.408727105189246
2022-12-06T14:54:17.853Z,18.338070324022556
2022-12-06T14:57:24.278Z,18.32650831052488
2022-12-06T15:01:21.243Z,18.2545669263116
2022-12-06T15:04:25.386Z,18.185837264316888
2022-12-06T15:07:32.456Z,18.18198326612046
2022-12-06T15:13:05.220Z,18.061867071059897
2022-12-06T15:14:18.777Z,17.987998901727497
2022-12-06T15:17:18.144Z,17.984787243555548
2022-12-06T15:21:17.059Z,17.796584273208374
2022-12-06T15:24:18.691Z,17.780526017364174
2022-12-06T15:27:17.598Z,17.709227395740253
2022-12-06T15:31:20.390Z,17.62893622224801
2022-12-06T15:34:24.880Z,17.613520325068386
2022-12-06T15:37:39.050Z,17.42082183133025
2022-12-06T15:41:18.103Z,17.253816801146606
2022-12-06T15:44:18.345Z,17.262809371864204
2022-12-06T15:47:17.344Z,17.15875253664708
2022-12-06T15:51:21.100Z,17.039922346096226
2022-12-06T15:54:19.996Z,16.945500629977325
2022-12-06T15:57:17.228Z,16.879341254782865
2022-12-06T16:01:19.324Z,16.747664971988705
2022-12-06T16:04:18.920Z,16.562033854027778
2022-12-06T16:07:19.431Z,16.562676175580417
2022-12-06T16:11:19.010Z,16.369337593553883
2022-12-06T16:14:16.426Z,16.191415076458725
2022-12-06T16:17:16.472Z,16.154802905037013
2022-12-06T16:21:23.119Z,15.94283799244813
2022-12-06T16:24:17.064Z,15.910079822865374
2022-12-06T16:27:16.901Z,15.803455274363296
2022-12-06T16:31:16.694Z,15.705823267565938
2022-12-06T16:34:17.992Z,15.591491182638856
2022-12-06T16:37:18.077Z,15.556163882164492
2022-12-06T16:41:19.858Z,15.33713492625975
2022-12-06T16:44:16.798Z,15.293457661046705
2022-12-06T16:47:16.804Z,15.164352926517404
2022-12-06T16:51:16.192Z,15.125814235398957
2022-12-06T16:54:16.870Z,15.001848223325577
2022-12-06T16:57:16.615Z,14.90935555781798
2022-12-06T17:01:23.671Z,14.89394012273442
2022-12-06T17:04:17.984Z,14.816862986606793
2022-12-06T17:07:17.494Z,14.712808956707885
2022-12-06T17:12:21.255Z,14.674270457401871
2022-12-06T17:14:17.843Z,14.54131276046328
2022-12-06T17:17:19.159Z,14.479008979187347
2022-12-06T17:21:17.382Z,14.42441291736768
2022-12-06T17:24:18.532Z,14.302374780338232
2022-12-06T17:27:17.103Z,14.180336807472576
2022-12-06T17:31:16.449Z,14.166206105429684
2022-12-06T17:34:17.554Z,14.089129587576554
2022-12-06T17:37:16.922Z,14.030037634902783
2022-12-06T17:51:16.238Z,13.714024802173025
2022-12-06T17:54:17.164Z,13.682552039675647
2022-12-06T17:57:18.664Z,13.583637714336874
2022-12-06T18:01:16.884Z,13.549595796145969
2022-12-06T18:04:17.158Z,13.522619190802743
2022-12-06T18:07:17.493Z,13.496927193171814
2022-12-06T18:11:18.542Z,13.473804401524921
2022-12-06T18:14:17.464Z,13.417282046754645
2022-12-06T18:17:17.070Z,13.30809123385634
2022-12-06T18:21:17.940Z,13.31322962210479
2022-12-06T18:24:22.722Z,13.257991963686163
2022-12-06T18:27:17.716Z,13.229730849128918
2022-12-06T18:31:17.111Z,13.187981491460596
2022-12-06T18:34:17.081Z,13.111548101822791
2022-12-06T18:37:16.840Z,13.08714081449516
2022-12-06T18:41:18.362Z,13.080717845237178
2022-12-06T18:44:16.831Z,13.044749225796204
2022-12-06T18:47:16.423Z,13.02162654940048
2022-12-06T18:51:18.924Z,12.991438619642576
2022-12-06T18:54:16.997Z,12.98116187988926
2022-12-06T18:57:16.831Z,12.914363099868932
2022-12-06T19:01:18.532Z,12.887386683418663
2022-12-06T19:04:18.849Z,12.83214928428788
2022-12-06T19:07:19.386Z,12.798749942990252
2022-12-06T19:11:19.252Z,12.794896173631788
2022-12-06T19:14:16.345Z,12.747366365004563
2022-12-06T19:17:16.263Z,12.722959175656797
2022-12-06T19:21:17.152Z,12.722316881288952
2022-12-06T19:24:18.977Z,12.704332640835583
2022-12-06T19:27:20.455Z,12.64845305931849
2022-12-06T19:31:16.886Z,12.645241590162277
2022-12-06T19:34:18.830Z,12.651022234725314
2022-12-06T19:37:17.564Z,12.640103239748806
2022-12-06T19:41:17.309Z,12.54568610270835
2022-12-06T19:44:16.313Z,12.478245350699671
2022-12-06T19:47:16.718Z,12.500083303004157
2022-12-06T19:51:16.702Z,12.469253254219893
2022-12-06T19:54:19.317Z,12.426219661977665
2022-12-06T19:57:16.658Z,12.416585278451475
2022-12-06T20:01:18.750Z,12.394747346246822
2022-12-06T20:04:18.304Z,12.340794830396135
2022-12-06T20:07:16.507Z,12.354925248112796
2022-12-06T20:12:03.621Z,12.342079413733973
2022-12-06T20:14:18.042Z,12.299045881818529
2022-12-06T20:17:19.479Z,12.289411511798335
2022-12-06T20:21:16.835Z,12.277207977908256
2022-12-06T20:24:19.143Z,12.250231750923922
2022-12-06T20:27:16.985Z,12.241881968006874
2022-12-06T20:31:19.153Z,12.212336588471317
2022-12-06T20:34:18.118Z,12.150034406641861
2022-12-06T20:37:16.870Z,12.150034406641861
2022-12-06T20:41:19.829Z,12.169303118101379
2022-12-06T20:44:17.688Z,12.135904020839371
2022-12-06T20:47:17.700Z,12.150676696957907
2022-12-06T20:51:19.906Z,12.140400052446875
2022-12-06T20:54:18.338Z,12.085805398002048
2022-12-06T20:57:17.265Z,12.094797456474044
2022-12-06T21:01:20.275Z,12.03634909233815
2022-12-06T21:04:17.073Z,12.014511251665045
2022-12-06T21:07:17.234Z,12.003592333299821
2022-12-06T21:11:23.131Z,12.019007277256241
2022-12-06T21:14:17.261Z,11.96120125092566
2022-12-06T21:17:16.832Z,11.97918534405908
2022-12-06T21:21:20.991Z,11.977900765859886
2022-12-06T21:24:19.464Z,11.948997761187002
2022-12-06T21:27:17.091Z,11.87834601075383
2022-12-06T21:31:16.886Z,11.884126606449717
2022-12-06T21:34:17.977Z,11.841735579900341
2022-12-06T21:37:17.199Z,11.818613210131662
2022-12-06T21:41:17.088Z,11.810905754851774
2022-12-06T21:44:17.293Z,11.817328634206206
2022-12-06T21:47:17.145Z,11.794848558455215
2022-12-06T21:51:17.627Z,11.811548042766754
2022-12-06T21:54:16.980Z,11.783929666529001
2022-12-06T21:57:16.997Z,11.756953586227974
2022-12-06T22:01:19.129Z,11.753742148631227
2022-12-06T22:04:16.690Z,11.747961561243574
2022-12-06T22:07:16.823Z,11.764018749340995
2022-12-06T22:11:18.332Z,11.735115812812001
2022-12-06T22:14:16.362Z,11.706212885491642
2022-12-06T22:17:16.355Z,11.657399073593206
2022-12-06T22:21:18.633Z,11.639415044251745
2022-12-06T22:24:16.969Z,11.61693501258851
2022-12-06T22:27:16.650Z,11.608585287960977
2022-12-06T22:31:18.585Z,11.561056100873339
2022-12-06T22:34:16.073Z,11.496185223550128
2022-12-06T22:37:16.078Z,11.509030938148499
2022-12-06T22:41:17.239Z,11.498112080623923
2022-12-06T22:44:18.137Z,11.433241248311607
2022-12-06T22:47:16.858Z,11.414614978298868
2022-12-06T22:51:17.804Z,11.414614978298868
2022-12-06T22:54:16.777Z,11.41846868902221
2022-12-06T22:57:16.264Z,11.376720164905782
2022-12-06T23:01:19.909Z,11.352955628989822
2022-12-06T23:04:16.935Z,11.296434595606206
2022-12-06T23:07:16.849Z,11.221287367120386
2022-12-06T23:11:18.450Z,11.223856502109266
2022-12-06T23:14:16.853Z,11.149993900203208
2022-12-06T23:17:16.774Z,11.130725405248905
2022-12-06T23:21:19.019Z,11.080627337521673
2022-12-06T23:24:17.040Z,11.074204510326762
2022-12-06T23:27:17.482Z,11.015114521470332
2022-12-06T23:31:18.668Z,10.988780951878653
2022-12-06T23:34:19.486Z,10.957951416704237
2022-12-06T23:37:16.458Z,10.92904873699381
2022-12-06T23:41:23.959Z,10.916845386103159
2022-12-06T23:44:22.187Z,10.89629237778754
2022-12-06T23:47:22.040Z,10.862893749206341
2022-12-06T23:51:19.032Z,10.897576940670842
2022-12-06T23:54:17.714Z,10.835917942790548
2022-12-06T23:57:16.644Z,10.844267596300142
